Upper Marlboro, MD

8:29 PM EST on February 08, 2016 (GMT -0500)
Upper Marlboro | | Change Station
CLOSE
Current Station
Personal Weather Station
Location: Upper Marlboro, MD
Elevation: 253 ft
Nearby Weather Stations
Active Advisory: Winter Weather Advisory

Elev 253 ft 38.77 °N, 76.83 °W | Updated 9 minutes ago

Mostly Cloudy
Mostly Cloudy
39.0 °F
Feels Like 39 °F
N
0.0
Wind Variable Wind from SSW
Gusts 1.0 mph

Today
High -- | Low -- °F
--% Chance of Precip.
Yesterday
High -- | Low -- °F
Precip. -- in
Pressure 29.69 in
Visibility 10.0 miles
Clouds Few 1900 ft
Scattered Clouds 2400 ft
Windchill 39 °F
Dew Point 35 °F
Humidity 84%
Rainfall 0.00 in
Snow Depth Not available.
7:06 AM 5:36 PM
New Moon, 0% visible
SPECI KADW 090120Z AUTO 15007KT 10SM -RA FEW019 SCT024 04/00 A2969 RMK AO2 RAE10DZB10E12RAB20
Pressure 29.69 in
Visibility 10.0 miles
Clouds Few 1900 ft
Scattered Clouds 2400 ft
Windchill 39 °F
Dew Point 35 °F
Humidity 84%
Rainfall 0.00 in
Snow Depth Not available.
7:06 AM 5:36 PM
New Moon, 0% visible
SPECI KADW 090120Z AUTO 15007KT 10SM -RA FEW019 SCT024 04/00 A2969 RMK AO2 RAE10DZB10E12RAB20

10-Day Weather Forecast

Almanac

Astronomy

Feb. 08, 2016 Rise Set
Actual Time
Civil Twilight
Nautical Twilight
Astronomical Twilight
Moon
Length of Visible Light
Length of Day
Tomorrow will be .
, % of the Moon is Illuminated

Today's Extremes

State Highs State Lows

Community

WunderPhotos

Upload Photos

1,891,527 photos uploaded!

WunderBlog® & News

Nearby

Air Quality

  Air Quality AQ Index Pollutant
Not available.

Snow Depth

Station Depth Elevation

Earthquake Activity

City Distance Mag. Time & Date
Minimum magnitude displayed is 2.5.

Coastal Water Temperatures

Place Temperature

Stations

Nearby Weather Stations

Station Location Temp. Windchill Dew Point Humidity Wind Precip. Elev Updated Type
                   

Watches & Warnings

Winter Weather Advisory
Issued: 6:11 PM EST Feb. 8, 2016 – National Weather Service

... Winter Weather Advisory remains in effect from 10 PM this
evening to midnight EST Tuesday night...

* precipitation type... snow.

* Accumulations... snow accumulation of 1 to 3 inches... with
locally higher amounts particularly in the northwest suburbs.

* Timing... a mixture of rain and snow will develop this evening.
Precipitation will turn to all snow around or shortly after
midnight.

* Impacts... snow covered roads and travel disruptions.

* Winds... north 5 to 10 mph.

* Temperatures... in the lower to middle 30s.

Precautionary/preparedness actions...

A Winter Weather Advisory for snow means that periods of snow
will cause primarily travel difficulties. Be prepared for snow
covered roads and limited visibilities... and use caution while
driving.